Boaz, Kentucky
Current Conditions -  °F | °C
As of 10:55 AM on Thursday 23 Oct 2014 (Local Time) from KM25 Reporting Station
Clear Clear  
Wind Chill: 55°   Ceiling: Unl
Heat Index: 55°   Visibility: 10mi
Dew Point: 43°   Wind: 3mph
Humidity: 63%   Direction: 110°ESE
Pressure: 30.25"   Gusts: NA
Location:  36.89°N, 88.63°W
Report Text: KM25 231555Z AUTO 11003KT 10SM CLR 13/06 A3025 RMK AO2
Loading
Personal Weather Stations






























Interactive Weather Map
Tropical Storm Tracking
New forecast layout! Learn more

10-Day Weather Forecast

Advertisements
Track Severe Weather on mobile